createdAt,value
2022-10-11T00:00:33.805Z,71
2022-10-11T00:01:35.251Z,70
2022-10-11T00:02:37.017Z,70
2022-10-11T00:03:38.419Z,70
2022-10-11T00:04:41.857Z,70
2022-10-11T00:05:44.088Z,70
2022-10-11T00:06:45.692Z,70
2022-10-11T00:07:48.188Z,70
2022-10-11T00:08:50.527Z,70
2022-10-11T00:09:52.677Z,70
2022-10-11T00:12:14.857Z,70
2022-10-11T00:13:17.086Z,70
2022-10-11T00:14:18.507Z,70
2022-10-11T00:15:20.796Z,70
2022-10-11T00:16:22.206Z,70
2022-10-11T00:17:24.300Z,71
2022-10-11T00:18:25.780Z,71
2022-10-11T00:19:27.166Z,71
2022-10-11T00:20:28.526Z,71
2022-10-11T00:21:29.927Z,70
2022-10-11T00:22:31.355Z,71
2022-10-11T00:23:32.805Z,71
2022-10-11T00:24:34.229Z,71
2022-10-11T00:25:35.617Z,70
2022-10-11T00:26:37.018Z,70
2022-10-11T00:27:38.377Z,71
2022-10-11T00:28:41.063Z,71
2022-10-11T00:29:43.426Z,71
2022-10-11T00:30:45.027Z,71
2022-10-11T00:31:47.396Z,71
2022-10-11T00:32:48.938Z,71
2022-10-11T00:33:50.326Z,71
2022-10-11T00:34:52.636Z,71
2022-10-11T00:35:54.868Z,71
2022-10-11T00:36:56.266Z,71
2022-10-11T00:37:58.643Z,71
2022-10-11T00:39:00.137Z,71
2022-10-11T00:41:23.589Z,71
2022-10-11T00:43:04.709Z,71
2022-10-11T00:44:07.507Z,72
2022-10-11T00:45:10.056Z,72
2022-10-11T00:46:12.237Z,72
2022-10-11T00:47:13.647Z,72
2022-10-11T00:48:15.015Z,72
2022-10-11T00:49:17.184Z,71
2022-10-11T00:50:19.388Z,72
2022-10-11T00:51:21.677Z,72
2022-10-11T00:52:23.098Z,72
2022-10-11T00:53:25.453Z,72
2022-10-11T00:55:29.507Z,72
2022-10-11T00:56:30.927Z,72
2022-10-11T00:57:32.298Z,72
2022-10-11T00:58:53.687Z,72
2022-10-11T00:59:55.216Z,72
2022-10-11T01:00:56.663Z,72
2022-10-11T01:01:58.988Z,72
2022-10-11T01:03:00.353Z,72
2022-10-11T01:04:01.718Z,72
2022-10-11T01:05:25.602Z,72
2022-10-11T01:06:29.468Z,72
2022-10-11T01:07:30.822Z,72
2022-10-11T01:08:32.206Z,73
2022-10-11T01:09:33.570Z,73
2022-10-11T01:10:34.979Z,72
2022-10-11T01:11:36.376Z,73
2022-10-11T01:12:37.794Z,73
2022-10-11T01:13:39.189Z,73
2022-10-11T01:14:40.625Z,73
2022-10-11T01:15:42.034Z,73
2022-10-11T01:16:43.450Z,72
2022-10-11T01:17:45.659Z,73
2022-10-11T01:18:47.867Z,73
2022-10-11T01:19:49.304Z,73
2022-10-11T01:20:51.939Z,73
2022-10-11T01:21:53.356Z,73
2022-10-11T01:22:54.769Z,73
2022-10-11T01:23:56.201Z,73
2022-10-11T01:24:58.527Z,73
2022-10-11T01:26:00.105Z,73
2022-10-11T01:27:02.310Z,73
2022-10-11T01:28:03.816Z,73
2022-10-11T01:29:43.668Z,73
2022-10-11T01:30:45.067Z,73
2022-10-11T01:31:46.427Z,73
2022-10-11T01:32:48.717Z,73
2022-10-11T01:33:53.817Z,73
2022-10-11T01:35:34.067Z,72
2022-10-11T01:36:35.485Z,72
2022-10-11T01:37:36.890Z,72
2022-10-11T01:38:38.287Z,72
2022-10-11T01:39:39.721Z,72
2022-10-11T01:40:41.087Z,72
2022-10-11T01:41:42.449Z,72
2022-10-11T01:42:43.904Z,72
2022-10-11T01:43:45.306Z,72
2022-10-11T01:44:48.046Z,72
2022-10-11T01:47:14.297Z,72
2022-10-11T01:48:16.760Z,72
2022-10-11T01:49:19.019Z,72
2022-10-11T01:50:20.471Z,72
2022-10-11T01:51:22.666Z,72
2022-10-11T01:53:04.587Z,72
2022-10-11T01:54:06.106Z,72
2022-10-11T01:55:09.827Z,72
2022-10-11T01:56:12.517Z,72
2022-10-11T01:57:13.917Z,72
2022-10-11T01:58:15.345Z,72
2022-10-11T01:59:17.209Z,72
2022-10-11T02:00:18.796Z,72
2022-10-11T02:01:20.301Z,72
2022-10-11T02:02:21.737Z,72
2022-10-11T02:03:24.079Z,72
2022-10-11T02:04:26.528Z,72
2022-10-11T02:05:27.917Z,72
2022-10-11T02:06:30.247Z,72
2022-10-11T02:07:31.660Z,72
2022-10-11T02:08:33.040Z,72
2022-10-11T02:09:34.392Z,72
2022-10-11T02:10:35.782Z,72
2022-10-11T02:11:37.179Z,72
2022-10-11T02:12:38.586Z,72
2022-10-11T02:13:39.998Z,72
2022-10-11T02:14:41.448Z,72
2022-10-11T02:15:43.727Z,72
2022-10-11T02:16:46.096Z,72
2022-10-11T02:18:05.098Z,72
2022-10-11T02:19:06.517Z,72
2022-10-11T02:20:07.927Z,72
2022-10-11T02:21:09.317Z,72
2022-10-11T02:22:11.579Z,72
2022-10-11T02:23:13.037Z,72
2022-10-11T02:24:14.449Z,72
2022-10-11T02:25:16.777Z,72
2022-10-11T02:26:18.350Z,72
2022-10-11T02:27:20.517Z,72
2022-10-11T02:28:22.002Z,72
2022-10-11T02:29:23.437Z,72
2022-10-11T02:30:33.559Z,72
2022-10-11T02:31:34.908Z,72
2022-10-11T02:32:37.248Z,72
2022-10-11T02:33:38.617Z,72
2022-10-11T02:34:40.009Z,72
2022-10-11T02:35:41.426Z,72
2022-10-11T02:36:42.848Z,72
2022-10-11T02:37:45.026Z,72
2022-10-11T02:38:46.479Z,72
2022-10-11T02:39:48.727Z,72
2022-10-11T02:40:50.116Z,72
2022-10-11T02:41:52.571Z,72
2022-10-11T02:42:53.977Z,72
2022-10-11T02:43:55.387Z,72
2022-10-11T02:45:33.288Z,72
2022-10-11T02:46:34.886Z,72
2022-10-11T02:47:37.506Z,72
2022-10-11T02:48:38.876Z,72
2022-10-11T02:49:40.287Z,72
2022-10-11T02:50:42.566Z,72
2022-10-11T02:51:43.938Z,72
2022-10-11T02:52:45.337Z,72
2022-10-11T02:53:46.817Z,72
2022-10-11T02:54:48.816Z,72
2022-10-11T02:55:50.246Z,73
2022-10-11T02:56:52.548Z,73
2022-10-11T02:57:55.245Z,73
2022-10-11T02:58:56.697Z,73
2022-10-11T02:59:58.916Z,73
2022-10-11T03:01:23.720Z,73
2022-10-11T03:02:26.177Z,73
2022-10-11T03:03:28.686Z,73
2022-10-11T03:04:30.936Z,73
2022-10-11T03:05:32.337Z,74
2022-10-11T03:06:33.778Z,74
2022-10-11T03:07:35.179Z,74
2022-10-11T03:08:36.607Z,73
2022-10-11T03:09:37.988Z,73
2022-10-11T03:10:39.398Z,74
2022-10-11T03:11:40.796Z,74
2022-10-11T03:12:42.188Z,74
2022-10-11T03:13:54.146Z,75
2022-10-11T03:14:56.398Z,75
2022-10-11T03:16:03.115Z,76
2022-10-11T03:17:24.023Z,76
2022-10-11T03:18:35.861Z,77
2022-10-11T03:19:43.267Z,77
2022-10-11T03:21:24.997Z,78
2022-10-11T03:22:26.567Z,78
2022-10-11T03:23:54.446Z,79
2022-10-11T03:24:58.527Z,79
2022-10-11T03:26:02.609Z,80
2022-10-11T03:27:04.106Z,80
2022-10-11T03:28:05.588Z,80
2022-10-11T03:29:07.020Z,82
2022-10-11T03:30:09.406Z,83
2022-10-11T03:31:24.770Z,84
2022-10-11T03:32:27.207Z,84
2022-10-11T03:33:28.687Z,84
2022-10-11T03:34:43.256Z,85
2022-10-11T03:35:44.657Z,87
2022-10-11T03:36:46.057Z,87
2022-10-11T03:37:47.455Z,88
2022-10-11T03:38:48.917Z,89
2022-10-11T03:39:51.256Z,90
2022-10-11T03:40:52.778Z,91
2022-10-11T03:41:54.176Z,91
2022-10-11T03:43:04.730Z,91
2022-10-11T03:44:44.550Z,91
2022-10-11T03:45:45.969Z,91
2022-10-11T03:46:48.237Z,91
2022-10-11T03:47:50.608Z,91
2022-10-11T03:48:52.017Z,91
2022-10-11T03:49:54.457Z,91
2022-10-11T03:51:24.447Z,91
2022-10-11T03:53:03.677Z,91
2022-10-11T03:54:05.957Z,91
2022-10-11T03:55:08.388Z,91
2022-10-11T03:56:10.058Z,91
2022-10-11T03:57:12.538Z,91
2022-10-11T03:58:13.958Z,91
2022-10-11T03:59:15.339Z,91
2022-10-11T04:00:17.740Z,91
2022-10-11T04:01:20.117Z,91
2022-10-11T04:02:22.488Z,91
2022-10-11T04:03:24.788Z,91
2022-10-11T04:04:27.078Z,91
2022-10-11T04:05:29.236Z,91
2022-10-11T04:06:30.640Z,91
2022-10-11T04:07:33.007Z,91
2022-10-11T04:08:34.617Z,91
2022-10-11T04:09:36.007Z,91
2022-10-11T04:10:37.396Z,91
2022-10-11T04:11:38.757Z,91
2022-10-11T04:12:40.956Z,91
2022-10-11T04:13:42.371Z,91
2022-10-11T04:14:43.787Z,91
2022-10-11T04:15:45.212Z,91
2022-10-11T04:17:14.128Z,91
2022-10-11T04:18:15.747Z,91
2022-10-11T04:19:17.899Z,91
2022-10-11T04:20:19.281Z,91
2022-10-11T04:21:21.636Z,91
2022-10-11T04:22:23.839Z,91
2022-10-11T04:23:25.247Z,91
2022-10-11T04:24:27.577Z,91
2022-10-11T04:25:33.683Z,91
2022-10-11T04:26:35.038Z,91
2022-10-11T04:27:36.708Z,91
2022-10-11T04:28:38.270Z,91
2022-10-11T04:29:40.157Z,91
2022-10-11T04:30:42.518Z,91
2022-10-11T04:31:44.110Z,91
2022-10-11T04:32:46.307Z,91
2022-10-11T04:33:47.716Z,91
2022-10-11T04:34:50.097Z,91
2022-10-11T04:36:23.357Z,91
2022-10-11T04:37:25.718Z,91
2022-10-11T04:38:27.126Z,91
2022-10-11T04:39:29.561Z,91
2022-10-11T04:40:30.935Z,91
2022-10-11T04:41:33.280Z,91
2022-10-11T04:42:34.697Z,91
2022-10-11T04:43:36.107Z,91
2022-10-11T04:44:37.507Z,91
2022-10-11T04:45:38.916Z,91
2022-10-11T04:46:40.318Z,91
2022-10-11T04:47:41.732Z,91
2022-10-11T04:48:43.942Z,91
2022-10-11T04:49:46.396Z,91
2022-10-11T04:50:48.588Z,91
2022-10-11T04:51:50.020Z,91
2022-10-11T04:52:51.469Z,91
2022-10-11T04:53:52.794Z,91
2022-10-11T04:54:55.147Z,91
2022-10-11T04:55:56.632Z,91
2022-10-11T04:56:59.027Z,91
2022-10-11T04:58:00.427Z,91
2022-10-11T04:59:01.839Z,91
2022-10-11T05:00:03.258Z,91
2022-10-11T05:01:05.556Z,91
2022-10-11T05:02:07.020Z,91
2022-10-11T05:03:08.502Z,91
2022-10-11T05:04:43.158Z,91
2022-10-11T05:05:44.551Z,91
2022-10-11T05:06:45.968Z,91
2022-10-11T05:07:47.427Z,91
2022-10-11T05:08:48.817Z,91
2022-10-11T05:09:50.209Z,91
2022-10-11T05:10:51.568Z,91
2022-10-11T05:11:53.939Z,91
2022-10-11T05:12:55.307Z,91
2022-10-11T05:13:57.658Z,91
2022-10-11T05:15:00.103Z,91
2022-10-11T05:16:01.768Z,91
2022-10-11T05:17:04.531Z,91
2022-10-11T05:18:06.068Z,91
2022-10-11T05:19:07.459Z,91
2022-10-11T05:20:33.203Z,91
2022-10-11T05:21:34.587Z,91
2022-10-11T05:22:35.953Z,91
2022-10-11T05:23:37.342Z,91
2022-10-11T05:24:38.749Z,91
2022-10-11T05:25:40.157Z,91
2022-10-11T05:26:41.540Z,91
2022-10-11T05:27:42.936Z,91
2022-10-11T05:28:53.505Z,91
2022-10-11T05:29:54.978Z,91
2022-10-11T05:30:56.438Z,91
2022-10-11T05:31:58.037Z,91
2022-10-11T05:32:59.439Z,91
2022-10-11T05:34:00.847Z,91
2022-10-11T05:35:02.241Z,91
2022-10-11T05:36:03.951Z,91
2022-10-11T05:37:13.409Z,91
2022-10-11T05:38:14.809Z,91
2022-10-11T05:39:16.268Z,91
2022-10-11T05:40:18.387Z,91
2022-10-11T05:41:23.947Z,91
2022-10-11T05:43:04.028Z,91
2022-10-11T05:44:05.648Z,91
2022-10-11T05:45:07.088Z,91
2022-10-11T05:46:08.741Z,91
2022-10-11T05:47:13.117Z,91
2022-10-11T05:48:15.078Z,91
2022-10-11T05:49:16.486Z,91
2022-10-11T05:50:22.010Z,91
2022-10-11T05:51:26.398Z,91
2022-10-11T05:52:27.800Z,91
2022-10-11T05:53:29.198Z,91
2022-10-11T05:54:30.567Z,91
2022-10-11T05:55:32.026Z,91
2022-10-11T05:56:33.598Z,91
2022-10-11T05:57:35.001Z,91
2022-10-11T05:58:36.398Z,91
2022-10-11T05:59:37.766Z,91
2022-10-11T06:00:39.179Z,91
2022-10-11T06:02:14.287Z,91
2022-10-11T06:03:15.678Z,91
2022-10-11T06:04:17.058Z,91
2022-10-11T06:05:18.469Z,91
2022-10-11T06:06:19.943Z,91
2022-10-11T06:07:21.367Z,91
2022-10-11T06:08:23.576Z,91
2022-10-11T06:09:25.788Z,91
2022-10-11T06:10:28.103Z,91
2022-10-11T06:11:30.817Z,91
2022-10-11T06:12:32.357Z,91
2022-10-11T06:13:33.768Z,91
2022-10-11T06:14:35.307Z,91
2022-10-11T06:15:36.687Z,91
2022-10-11T06:16:38.107Z,91
2022-10-11T06:17:39.524Z,91
2022-10-11T06:18:41.767Z,91
2022-10-11T06:19:43.141Z,91
2022-10-11T06:21:23.091Z,91
2022-10-11T06:22:25.237Z,91
2022-10-11T06:23:26.668Z,91
2022-10-11T06:24:28.068Z,91
2022-10-11T06:25:30.326Z,91
2022-10-11T06:26:31.738Z,91
2022-10-11T06:27:33.108Z,91
2022-10-11T06:28:35.403Z,91
2022-10-11T06:29:36.856Z,91
2022-10-11T06:30:38.267Z,91
2022-10-11T06:31:39.639Z,91
2022-10-11T06:32:41.068Z,91
2022-10-11T06:33:43.468Z,91
2022-10-11T06:34:44.870Z,91
2022-10-11T06:35:46.397Z,91
2022-10-11T06:36:47.821Z,91
2022-10-11T06:37:49.189Z,91
2022-10-11T06:38:50.619Z,91
2022-10-11T06:39:52.039Z,91
2022-10-11T06:40:53.403Z,91
2022-10-11T06:41:54.800Z,91
2022-10-11T06:42:56.160Z,91
2022-10-11T06:43:57.661Z,91
2022-10-11T06:44:59.008Z,91
2022-10-11T06:47:13.237Z,91
2022-10-11T06:48:14.596Z,91
2022-10-11T06:49:19.416Z,91
2022-10-11T06:50:40.942Z,91
2022-10-11T06:51:55.753Z,91
2022-10-11T06:52:58.147Z,91
2022-10-11T06:54:00.399Z,91
2022-10-11T06:55:01.811Z,91
2022-10-11T06:56:03.601Z,91
2022-10-11T06:57:13.137Z,91
2022-10-11T06:58:14.526Z,91
2022-10-11T07:01:23.063Z,91
2022-10-11T07:02:24.516Z,91
2022-10-11T07:03:26.936Z,91
2022-10-11T07:04:29.277Z,91
2022-10-11T07:05:30.993Z,91
2022-10-11T07:06:33.440Z,91
2022-10-11T07:07:35.125Z,91
2022-10-11T07:08:36.538Z,91
2022-10-11T07:09:37.948Z,91
2022-10-11T07:10:40.178Z,91
2022-10-11T07:11:42.598Z,91
2022-10-11T07:12:44.878Z,91
2022-10-11T07:13:46.315Z,91
2022-10-11T07:14:47.737Z,91
2022-10-11T07:15:49.137Z,91
2022-10-11T07:16:50.536Z,91
2022-10-11T07:17:51.939Z,91
2022-10-11T07:18:57.336Z,91
2022-10-11T07:20:00.947Z,91
2022-10-11T07:21:02.338Z,91
2022-10-11T07:22:04.908Z,91
2022-10-11T07:23:07.193Z,91
2022-10-11T07:24:09.390Z,91
2022-10-11T07:25:11.858Z,91
2022-10-11T07:26:14.098Z,91
2022-10-11T07:27:16.491Z,91
2022-10-11T07:28:18.668Z,91
2022-10-11T07:29:20.957Z,91
2022-10-11T07:30:23.141Z,91
2022-10-11T07:31:25.400Z,91
2022-10-11T07:32:27.487Z,91
2022-10-11T07:33:29.771Z,91
2022-10-11T07:34:32.307Z,91
2022-10-11T07:35:34.561Z,91
2022-10-11T07:36:35.976Z,91
2022-10-11T07:37:37.457Z,91
2022-10-11T07:38:39.823Z,91
2022-10-11T07:39:42.187Z,91
2022-10-11T07:40:44.379Z,91
2022-10-11T07:41:46.647Z,91
2022-10-11T07:42:49.327Z,91
2022-10-11T07:43:50.747Z,91
2022-10-11T07:46:23.977Z,91
2022-10-11T07:47:25.386Z,91
2022-10-11T07:48:27.869Z,91
2022-10-11T07:49:30.028Z,91
2022-10-11T07:50:32.347Z,91
2022-10-11T07:51:34.578Z,91
2022-10-11T07:52:36.806Z,91
2022-10-11T07:53:38.287Z,91
2022-10-11T07:54:44.111Z,91
2022-10-11T07:55:45.896Z,91
2022-10-11T07:56:47.307Z,91
2022-10-11T07:57:49.667Z,91
2022-10-11T07:58:51.289Z,91
2022-10-11T07:59:52.635Z,91
2022-10-11T08:00:54.131Z,91
2022-10-11T08:01:56.590Z,91
2022-10-11T08:02:58.021Z,91
2022-10-11T08:03:59.477Z,91
2022-10-11T08:05:00.926Z,91
2022-10-11T08:06:02.637Z,91
2022-10-11T08:07:13.807Z,91
2022-10-11T08:08:15.919Z,91
2022-10-11T08:09:18.338Z,91
2022-10-11T08:10:20.629Z,91
2022-10-11T08:11:22.866Z,91
2022-10-11T08:12:24.976Z,91
2022-10-11T08:13:27.278Z,90
2022-10-11T08:14:28.696Z,90
2022-10-11T08:15:30.977Z,90
2022-10-11T08:16:33.510Z,89
2022-10-11T08:17:35.757Z,89
2022-10-11T08:18:38.008Z,89
2022-10-11T08:19:40.778Z,89
2022-10-11T08:20:42.940Z,89
2022-10-11T08:21:45.389Z,88
2022-10-11T08:22:47.678Z,88
2022-10-11T08:23:49.958Z,88
2022-10-11T08:24:52.136Z,88
2022-10-11T08:26:24.189Z,87
2022-10-11T08:27:26.456Z,87
2022-10-11T08:28:28.676Z,87
2022-10-11T08:29:30.898Z,87
2022-10-11T08:30:34.074Z,87
2022-10-11T08:31:36.453Z,86
2022-10-11T08:32:38.728Z,86
2022-10-11T08:33:40.949Z,86
2022-10-11T08:34:43.937Z,86
2022-10-11T08:35:46.287Z,86
2022-10-11T08:36:48.625Z,85
2022-10-11T08:38:03.514Z,85
2022-10-11T08:39:04.908Z,84
2022-10-11T08:40:06.317Z,84
2022-10-11T08:41:08.797Z,84
2022-10-11T08:42:11.093Z,84
2022-10-11T08:43:13.369Z,84
2022-10-11T08:44:15.657Z,84
2022-10-11T08:45:17.067Z,84
2022-10-11T08:46:19.457Z,84
2022-10-11T08:47:21.778Z,84
2022-10-11T08:48:23.197Z,84
2022-10-11T08:49:25.427Z,84
2022-10-11T08:50:27.597Z,84
2022-10-11T08:51:30.139Z,84
2022-10-11T08:52:32.527Z,84
2022-10-11T08:53:33.937Z,84
2022-10-11T08:54:36.340Z,84
2022-10-11T08:55:38.586Z,83
2022-10-11T08:56:40.180Z,83
2022-10-11T08:57:42.451Z,83
2022-10-11T08:58:44.758Z,83
2022-10-11T08:59:46.927Z,83
2022-10-11T09:00:49.088Z,83
2022-10-11T09:01:51.544Z,83
2022-10-11T09:03:07.844Z,83
2022-10-11T09:04:11.046Z,83
2022-10-11T09:05:13.358Z,83
2022-10-11T09:06:15.608Z,83
2022-10-11T09:07:17.988Z,83
2022-10-11T09:08:20.191Z,83
2022-10-11T09:09:22.578Z,83
2022-10-11T09:10:24.836Z,82
2022-10-11T09:11:27.037Z,82
2022-10-11T09:12:31.902Z,82
2022-10-11T09:13:35.159Z,82
2022-10-11T09:14:37.486Z,82
2022-10-11T09:15:39.908Z,82
2022-10-11T09:16:42.457Z,82
2022-10-11T09:17:43.896Z,82
2022-10-11T09:18:45.461Z,82
2022-10-11T09:19:47.657Z,81
2022-10-11T09:20:49.068Z,81
2022-10-11T09:21:51.407Z,81
2022-10-11T09:22:53.779Z,81
2022-10-11T09:23:56.009Z,81
2022-10-11T09:24:57.525Z,81
2022-10-11T09:25:58.935Z,81
2022-10-11T09:27:00.320Z,81
2022-10-11T09:28:03.866Z,80
2022-10-11T09:29:05.579Z,80
2022-10-11T09:30:07.068Z,80
2022-10-11T09:31:09.307Z,80
2022-10-11T09:32:10.746Z,80
2022-10-11T09:33:12.208Z,80
2022-10-11T09:34:14.582Z,80
2022-10-11T09:35:16.786Z,80
2022-10-11T09:36:19.067Z,80
2022-10-11T09:37:21.467Z,79
2022-10-11T09:38:23.717Z,79
2022-10-11T09:39:25.946Z,79
2022-10-11T09:40:28.860Z,79
2022-10-11T09:41:31.088Z,79
2022-10-11T09:43:03.188Z,79
2022-10-11T09:45:33.722Z,78
2022-10-11T09:46:35.954Z,78
2022-10-11T09:47:38.176Z,78
2022-10-11T09:48:40.518Z,78
2022-10-11T09:49:43.708Z,78
2022-10-11T09:50:45.987Z,78
2022-10-11T09:51:48.238Z,78
2022-10-11T09:52:50.477Z,78
2022-10-11T09:53:52.860Z,78
2022-10-11T09:54:55.137Z,78
2022-10-11T09:55:57.418Z,78
2022-10-11T09:56:58.826Z,78
2022-10-11T09:58:02.807Z,78
2022-10-11T09:59:04.257Z,78
2022-10-11T10:00:05.673Z,78
2022-10-11T10:01:08.321Z,78
2022-10-11T10:02:09.927Z,78
2022-10-11T10:03:12.178Z,78
2022-10-11T10:04:14.566Z,77
2022-10-11T10:05:16.826Z,77
2022-10-11T10:06:19.056Z,77
2022-10-11T10:07:21.318Z,77
2022-10-11T10:08:23.606Z,76
2022-10-11T10:09:26.050Z,76
2022-10-11T10:10:28.477Z,75
2022-10-11T10:11:30.708Z,75
2022-10-11T10:12:32.898Z,75
2022-10-11T10:13:35.299Z,75
2022-10-11T10:14:37.587Z,75
2022-10-11T10:15:39.697Z,75
2022-10-11T10:16:41.130Z,75
2022-10-11T10:17:43.348Z,75
2022-10-11T10:18:45.738Z,75
2022-10-11T10:19:48.167Z,75
2022-10-11T10:20:50.387Z,75
2022-10-11T10:21:52.587Z,75
2022-10-11T10:22:54.838Z,75
2022-10-11T10:23:57.088Z,75
2022-10-11T10:24:58.489Z,75
2022-10-11T10:25:59.886Z,75
2022-10-11T10:27:01.258Z,75
2022-10-11T10:28:03.195Z,74
2022-10-11T10:29:04.566Z,74
2022-10-11T10:30:05.959Z,74
2022-10-11T10:31:07.317Z,74
2022-10-11T10:32:14.119Z,74
2022-10-11T10:33:17.337Z,74
2022-10-11T10:34:19.636Z,74
2022-10-11T10:35:21.988Z,73
2022-10-11T10:36:24.256Z,74
2022-10-11T10:37:26.498Z,74
2022-10-11T10:38:54.327Z,73
2022-10-11T10:39:56.458Z,73
2022-10-11T10:40:57.918Z,73
2022-10-11T10:42:00.026Z,73
2022-10-11T10:43:03.187Z,73
2022-10-11T10:44:04.553Z,73
2022-10-11T10:45:09.766Z,73
2022-10-11T10:46:12.698Z,73
2022-10-11T10:47:14.930Z,73
2022-10-11T10:48:17.077Z,73
2022-10-11T10:49:41.480Z,72
2022-10-11T10:50:51.358Z,72
2022-10-11T10:51:53.718Z,72
2022-10-11T10:52:55.927Z,72
2022-10-11T10:53:58.139Z,72
2022-10-11T10:55:00.306Z,72
2022-10-11T10:56:01.749Z,72
2022-10-11T10:57:03.148Z,72
2022-10-11T10:58:04.504Z,72
2022-10-11T10:59:05.887Z,72
2022-10-11T11:00:07.247Z,72
2022-10-11T11:01:08.647Z,71
2022-10-11T11:02:35.286Z,71
2022-10-11T11:03:41.863Z,71
2022-10-11T11:04:44.129Z,70
2022-10-11T11:06:23.606Z,68
2022-10-11T11:07:25.797Z,68
2022-10-11T11:08:28.010Z,67
2022-10-11T11:09:30.206Z,66
2022-10-11T11:10:31.618Z,66
2022-10-11T11:11:33.847Z,66
2022-10-11T11:12:36.028Z,66
2022-10-11T11:13:38.358Z,66
2022-10-11T11:14:40.587Z,66
2022-10-11T11:15:42.809Z,66
2022-10-11T11:16:45.088Z,65
2022-10-11T11:18:02.918Z,66
2022-10-11T11:19:04.532Z,66
2022-10-11T11:20:05.887Z,66
2022-10-11T11:21:07.277Z,66
2022-10-11T11:22:08.697Z,66
2022-10-11T11:23:10.158Z,66
2022-10-11T11:24:42.867Z,65
2022-10-11T11:25:45.290Z,64
2022-10-11T11:26:47.606Z,63
2022-10-11T11:27:49.897Z,63
2022-10-11T11:28:51.997Z,63
2022-10-11T11:29:55.602Z,63
2022-10-11T11:30:57.998Z,64
2022-10-11T11:32:14.098Z,64
2022-10-11T11:33:16.348Z,63
2022-10-11T11:34:17.837Z,63
2022-10-11T11:35:19.266Z,63
2022-10-11T11:36:21.487Z,63
2022-10-11T11:37:23.877Z,61
2022-10-11T11:38:54.200Z,61
2022-10-11T11:39:56.427Z,61
2022-10-11T11:40:58.747Z,60
2022-10-11T11:42:00.997Z,60
2022-10-11T11:43:03.559Z,60
2022-10-11T11:44:05.158Z,59
2022-10-11T11:45:06.637Z,59
2022-10-11T11:46:23.488Z,59
2022-10-11T11:47:25.767Z,59
2022-10-11T11:48:53.397Z,58
2022-10-11T11:50:34.335Z,57
2022-10-11T11:51:36.618Z,57
2022-10-11T11:52:38.868Z,56
2022-10-11T11:53:41.181Z,57
2022-10-11T11:54:43.509Z,57
2022-10-11T11:55:46.027Z,56
2022-10-11T11:56:48.659Z,56
2022-10-11T11:57:50.068Z,56
2022-10-11T11:58:51.487Z,56
2022-10-11T11:59:53.778Z,56
2022-10-11T12:00:55.978Z,55
2022-10-11T12:01:58.198Z,55
2022-10-11T12:03:04.030Z,55
2022-10-11T12:04:44.307Z,55
2022-10-11T12:05:46.652Z,55
2022-10-11T12:07:11.372Z,54
2022-10-11T12:08:15.827Z,54
2022-10-11T12:09:17.220Z,54
2022-10-11T12:10:34.101Z,55
2022-10-11T12:11:36.307Z,55
2022-10-11T12:12:38.769Z,55
2022-10-11T12:13:53.458Z,54
2022-10-11T12:14:55.738Z,53
2022-10-11T12:15:57.926Z,53
2022-10-11T12:16:59.339Z,52
2022-10-11T12:18:01.739Z,52
2022-10-11T12:19:03.927Z,52
2022-10-11T12:20:06.087Z,52
2022-10-11T12:21:23.561Z,51
2022-10-11T12:22:25.759Z,51
2022-10-11T12:23:27.947Z,51
2022-10-11T12:24:30.227Z,52
2022-10-11T12:25:32.399Z,52
2022-10-11T12:26:34.537Z,52
2022-10-11T12:28:03.828Z,51
2022-10-11T12:29:05.306Z,51
2022-10-11T12:30:06.847Z,52
2022-10-11T12:31:08.491Z,51
2022-10-11T12:32:10.054Z,52
2022-10-11T12:33:11.405Z,52
2022-10-11T12:34:12.820Z,51
2022-10-11T12:35:14.238Z,51
2022-10-11T12:36:23.939Z,51
2022-10-11T12:38:04.062Z,51
2022-10-11T12:39:05.479Z,51
2022-10-11T12:40:07.358Z,50
2022-10-11T12:41:08.767Z,50
2022-10-11T12:42:10.139Z,50
2022-10-11T12:43:11.606Z,50
2022-10-11T12:44:13.857Z,50
2022-10-11T12:45:15.279Z,50
2022-10-11T12:46:16.691Z,51
2022-10-11T12:47:18.087Z,51
2022-10-11T12:48:19.446Z,50
2022-10-11T12:49:21.550Z,50
2022-10-11T12:50:23.877Z,49
2022-10-11T12:51:26.068Z,50
2022-10-11T12:52:27.558Z,50
2022-10-11T12:53:30.072Z,50
2022-10-11T12:54:36.804Z,51
2022-10-11T12:55:39.449Z,50
2022-10-11T12:56:41.716Z,49
2022-10-11T12:57:46.247Z,47
2022-10-11T12:58:48.718Z,47
2022-10-11T12:59:50.986Z,47
2022-10-11T13:00:53.382Z,47
2022-10-11T13:01:55.617Z,47
2022-10-11T13:02:57.877Z,47
2022-10-11T13:04:00.107Z,47
2022-10-11T13:05:02.332Z,47
2022-10-11T13:06:04.837Z,46
2022-10-11T13:08:04.178Z,46
2022-10-11T13:09:06.426Z,46
2022-10-11T13:10:08.727Z,46
2022-10-11T13:11:10.365Z,46
2022-10-11T13:12:11.785Z,46
2022-10-11T13:13:13.135Z,46
2022-10-11T13:14:14.517Z,46
2022-10-11T13:15:15.907Z,46
2022-10-11T13:16:17.307Z,46
2022-10-11T13:18:03.962Z,47
2022-10-11T13:19:06.187Z,46
2022-10-11T13:20:34.312Z,46
2022-10-11T13:21:37.366Z,46
2022-10-11T13:22:38.776Z,45
2022-10-11T13:23:41.690Z,46
2022-10-11T13:24:43.912Z,46
2022-10-11T13:25:45.837Z,46
2022-10-11T13:26:48.312Z,46
2022-10-11T13:28:03.429Z,46
2022-10-11T13:29:05.760Z,47
2022-10-11T13:30:33.617Z,47
2022-10-11T13:32:12.798Z,47
2022-10-11T13:33:14.209Z,46
2022-10-11T13:34:17.641Z,46
2022-10-11T13:35:23.802Z,46
2022-10-11T13:36:26.259Z,46
2022-10-11T13:37:28.419Z,46
2022-10-11T13:38:29.827Z,46
2022-10-11T13:39:32.161Z,46
2022-10-11T13:40:34.355Z,46
2022-10-11T13:41:36.500Z,46
2022-10-11T13:42:38.936Z,46
2022-10-11T13:43:41.158Z,46
2022-10-11T13:44:44.158Z,46
2022-10-11T13:45:46.650Z,46
2022-10-11T13:46:48.939Z,46
2022-10-11T13:47:51.160Z,46
2022-10-11T13:48:53.727Z,46
2022-10-11T13:49:56.068Z,46
2022-10-11T13:50:58.467Z,46
2022-10-11T13:52:13.141Z,46
2022-10-11T13:53:14.578Z,46
2022-10-11T13:54:16.086Z,46
2022-10-11T13:55:17.440Z,46
2022-10-11T13:56:18.863Z,46
2022-10-11T13:57:20.339Z,45
2022-10-11T13:58:21.728Z,46
2022-10-11T14:00:33.121Z,46
2022-10-11T14:01:35.489Z,46
2022-10-11T14:02:37.926Z,46
2022-10-11T14:03:40.426Z,46
2022-10-11T14:04:43.538Z,46
2022-10-11T14:05:45.747Z,46
2022-10-11T14:07:12.856Z,46
2022-10-11T14:08:14.222Z,46
2022-10-11T14:09:15.804Z,46
2022-10-11T14:10:17.212Z,46
2022-10-11T14:11:18.627Z,46
2022-10-11T14:12:20.071Z,46
2022-10-11T14:13:21.425Z,46
2022-10-11T14:14:43.077Z,46
2022-10-11T14:15:44.885Z,47
2022-10-11T14:16:46.338Z,47
2022-10-11T14:17:48.526Z,47
2022-10-11T14:18:49.939Z,47
2022-10-11T14:19:51.347Z,47
2022-10-11T14:20:52.918Z,47
2022-10-11T14:22:12.648Z,47
2022-10-11T14:23:14.037Z,47
2022-10-11T14:24:44.019Z,47
2022-10-11T14:26:22.517Z,48
2022-10-11T14:28:02.811Z,48
2022-10-11T14:29:43.929Z,48
2022-10-11T14:30:50.627Z,48
2022-10-11T14:31:52.038Z,48
2022-10-11T14:33:03.096Z,48
2022-10-11T14:34:04.465Z,48
2022-10-11T14:35:05.916Z,48
2022-10-11T14:36:08.052Z,48
2022-10-11T14:37:09.937Z,49
2022-10-11T14:38:11.586Z,49
2022-10-11T14:40:32.509Z,49
2022-10-11T14:41:33.916Z,49
2022-10-11T14:43:03.320Z,48
2022-10-11T14:44:04.913Z,48
2022-10-11T14:45:06.337Z,48
2022-10-11T14:46:08.571Z,49
2022-10-11T14:47:10.117Z,49
2022-10-11T14:48:11.539Z,49
2022-10-11T14:49:13.100Z,49
2022-10-11T14:50:14.647Z,49
2022-10-11T14:51:22.648Z,49
2022-10-11T14:52:24.064Z,49
2022-10-11T14:53:25.459Z,49
2022-10-11T14:54:26.862Z,49
2022-10-11T14:55:28.247Z,49
2022-10-11T14:56:29.613Z,49
2022-10-11T14:57:31.027Z,49
2022-10-11T14:58:32.498Z,50
2022-10-11T14:59:35.282Z,49
2022-10-11T15:00:36.694Z,49
2022-10-11T15:01:38.139Z,50
2022-10-11T15:02:39.600Z,50
2022-10-11T15:03:53.548Z,50
2022-10-11T15:04:54.968Z,50
2022-10-11T15:05:57.467Z,50
2022-10-11T15:06:59.677Z,50
2022-10-11T15:08:01.968Z,50
2022-10-11T15:09:03.538Z,50
2022-10-11T15:10:05.800Z,51
2022-10-11T15:11:08.137Z,50
2022-10-11T15:12:13.718Z,50
2022-10-11T15:13:15.149Z,50
2022-10-11T15:14:17.189Z,50
2022-10-11T15:15:18.621Z,50
2022-10-11T15:16:20.029Z,50
2022-10-11T15:17:21.438Z,50
2022-10-11T15:18:22.977Z,51
2022-10-11T15:19:24.508Z,51
2022-10-11T15:20:26.098Z,51
2022-10-11T15:21:27.516Z,51
2022-10-11T15:23:53.248Z,51
2022-10-11T15:24:55.659Z,51
2022-10-11T15:25:57.880Z,51
2022-10-11T15:27:00.240Z,51
2022-10-11T15:29:43.917Z,51
2022-10-11T15:30:45.342Z,51
2022-10-11T15:31:47.528Z,51